Columbus, OH

1:56 PM EDT on October 31, 2014 (GMT -0400)
Port Columbus International | Change Station
CLOSE
Current Station
Airport
Location: Columbus,
Elevation: 814 ft
Nearby Weather Stations
Active Advisory: Freeze Watch, Special Statement

Elev 814 ft 39.99 °N, 82.88 °W | Updated 5 minutes ago

Overcast
Overcast
46 °F
Feels Like 42 °F
N
7
Wind Variable Wind from South

Today
High -- | Low -- °F
--% Chance of Precip.
Yesterday
High -- | Low -- °F
Precip. -- in
7:59 AM 6:30 PM
First Quarter, 57% visible
Pressure 29.88 in
Visibility 7.0 miles
Clouds Mostly Cloudy 2300 ft
Overcast 5000 ft
Windchill 42 °F
Dew Point 40 °F
Humidity 79%
Rainfall 0.00 in
Snow Depth Not available.
UV 1 out of 12
Pollen .10 out of 12
Air Quality Not available.
Flu Activity Not available.
METAR KCMH 311751Z 18006KT 7SM -RA BKN023 OVC050 08/04 A2987 RMK AO2 RAE1652B10E19B41 SLP116 P0000 60000 T00780044 10078 20050 58022

More Conditions Fewer Conditions

Pressure 29.88 in
Visibility 7.0 miles
Clouds Mostly Cloudy 2300 ft
Overcast 5000 ft
Windchill 42 °F
Dew Point 40 °F
Humidity 79%
Rainfall 0.00 in
Snow Depth Not available.
UV 1 out of 12
Pollen .10 out of 12
Air Quality Not available.
Flu Activity Not available.
METAR KCMH 311751Z 18006KT 7SM -RA BKN023 OVC050 08/04 A2987 RMK AO2 RAE1652B10E19B41 SLP116 P0000 60000 T00780044 10078 20050 58022

More Conditions Fewer Conditions

10-Day Weather Forecast

Almanac

Astronomy

Oct. 31, 2014 Rise Set
Actual Time
Civil Twilight
Nautical Twilight
Astronomical Twilight
Moon
Length of Visible Light
Length of Day
Tomorrow will be .
, % of the Moon is Illuminated

Today's Extremes

State Highs State Lows

Community

WunderPhotos

Upload Photos

1,766,673 photos uploaded!

WunderBlogs® & News

Nearby

Air Quality

  Air Quality AQ Index Pollutant
Not available.

Snow Depth

Station Depth Elevation

Earthquake Activity

City Distance Mag. Time & Date
Minimum magnitude displayed is 2.5.

Coastal Water Temperatures

Place Temperature

Nearby Weather Stations